createdAt,value
2023-02-19T00:04:56.816Z,5.15
2023-02-19T00:09:58.362Z,5.30
2023-02-19T00:14:59.922Z,4.30
2023-02-19T00:20:01.405Z,5.20
2023-02-19T00:25:07.025Z,4.93
2023-02-19T00:30:09.381Z,5.63
2023-02-19T00:35:10.885Z,5.13
2023-02-19T00:40:12.601Z,5.43
2023-02-19T00:45:14.154Z,4.43
2023-02-19T00:50:16.365Z,4.60
2023-02-19T00:55:18.012Z,3.92
2023-02-19T01:00:19.629Z,4.60
2023-02-19T01:05:21.520Z,4.10
2023-02-19T01:10:23.070Z,4.47
2023-02-19T01:15:24.618Z,4.40
2023-02-19T01:20:26.579Z,4.90
2023-02-19T01:25:28.296Z,5.43
2023-02-19T01:30:29.880Z,5.53
2023-02-19T01:35:31.389Z,5.68
2023-02-19T01:40:32.907Z,5.45
2023-02-19T01:45:35.728Z,5.72
2023-02-19T01:50:54.058Z,5.18
2023-02-19T01:55:59.857Z,5.32
2023-02-19T02:01:04.618Z,5.95
2023-02-19T02:06:23.579Z,6.43
2023-02-19T02:11:25.307Z,5.82
2023-02-19T02:17:12.844Z,6.13
2023-02-19T02:22:26.802Z,6.82
2023-02-19T02:27:35.611Z,7.78
2023-02-19T02:33:15.647Z,7.20
2023-02-19T02:38:20.653Z,6.63
2023-02-19T02:43:22.181Z,6.88
2023-02-19T02:48:42.278Z,7.30
2023-02-19T02:54:21.219Z,8.13
2023-02-19T02:59:28.289Z,7.78
2023-02-19T03:05:26.182Z,9.50
2023-02-19T03:10:50.581Z,9.13
2023-02-19T03:16:17.671Z,8.63
2023-02-19T03:21:21.989Z,8.18
2023-02-19T03:26:26.200Z,8.23
2023-02-19T03:31:31.729Z,8.20
2023-02-19T03:36:40.106Z,7.60
2023-02-19T03:41:58.711Z,7.43
2023-02-19T03:47:14.326Z,7.35
2023-02-19T03:52:31.475Z,7.50
2023-02-19T03:57:44.682Z,7.97
2023-02-19T04:03:41.748Z,7.63
2023-02-19T04:08:47.829Z,9.23
2023-02-19T04:13:58.342Z,9.27
2023-02-19T04:19:05.235Z,9.30
2023-02-19T04:24:14.956Z,8.77
2023-02-19T04:29:16.446Z,9.18
2023-02-19T04:34:17.959Z,8.85
2023-02-19T04:39:19.668Z,7.40
2023-02-19T04:44:21.379Z,8.25
2023-02-19T04:49:22.929Z,7.97
2023-02-19T04:54:24.520Z,7.43
2023-02-19T04:59:26.085Z,8.88
2023-02-19T05:04:27.632Z,8.65
2023-02-19T05:09:29.161Z,9.65
2023-02-19T05:14:30.680Z,10.48
2023-02-19T05:19:32.307Z,9.80
2023-02-19T05:24:33.922Z,9.30
2023-02-19T05:29:35.453Z,10.38
2023-02-19T05:34:36.971Z,10.38
2023-02-19T05:39:38.481Z,11.85
2023-02-19T05:44:39.981Z,12.27
2023-02-19T05:49:41.516Z,12.32
2023-02-19T05:54:43.031Z,12.60
2023-02-19T05:59:44.520Z,12.73
2023-02-19T06:04:46.052Z,13.27
2023-02-19T06:09:50.747Z,13.95
2023-02-19T06:14:52.334Z,16.23
2023-02-19T06:19:53.867Z,15.68
2023-02-19T06:24:55.396Z,12.23
2023-02-19T06:29:56.967Z,11.20
2023-02-19T06:34:58.457Z,9.40
2023-02-19T06:39:59.930Z,7.78
2023-02-19T06:45:01.397Z,7.95
2023-02-19T06:50:02.917Z,7.53
2023-02-19T06:55:04.607Z,7.47
2023-02-19T07:00:06.551Z,8.35
2023-02-19T07:05:08.032Z,7.15
2023-02-19T07:10:09.584Z,6.78
2023-02-19T07:15:11.139Z,7.72
2023-02-19T07:20:13.170Z,8.07
2023-02-19T07:25:14.676Z,7.32
2023-02-19T07:30:16.348Z,7.32
2023-02-19T07:35:17.921Z,7.22
2023-02-19T07:40:19.512Z,5.80
2023-02-19T07:45:21.019Z,6.22
2023-02-19T07:50:22.533Z,6.53
2023-02-19T07:55:24.026Z,6.95
2023-02-19T08:00:26.180Z,7.10
2023-02-19T08:05:28.853Z,6.60
2023-02-19T08:10:48.987Z,7.50
2023-02-19T08:15:51.643Z,8.25
2023-02-19T08:20:54.905Z,7.95
2023-02-19T08:26:01.200Z,7.88
2023-02-19T08:31:07.063Z,6.97
2023-02-19T08:36:09.813Z,7.60
2023-02-19T08:41:13.810Z,4.50
2023-02-19T08:46:15.564Z,3.22
2023-02-19T08:51:17.029Z,2.70
2023-02-19T08:56:18.700Z,2.90
2023-02-19T09:01:20.248Z,1.83
2023-02-19T09:06:21.852Z,2.10
2023-02-19T09:11:23.354Z,1.50
2023-02-19T09:16:24.909Z,1.75
2023-02-19T09:21:26.381Z,1.30
2023-02-19T09:26:27.881Z,1.40
2023-02-19T09:31:29.587Z,1.42
2023-02-19T09:36:32.128Z,1.40
2023-02-19T09:41:45.155Z,2.20
2023-02-19T09:46:49.991Z,1.50
2023-02-19T09:51:56.411Z,1.33
2023-02-19T09:57:01.391Z,1.60
2023-02-19T10:02:10.388Z,1.73
2023-02-19T10:07:16.475Z,0.60
2023-02-19T10:12:26.012Z,1.20
2023-02-19T10:17:31.450Z,0.70
2023-02-19T10:22:36.545Z,0.80
2023-02-19T10:27:38.194Z,0.60
2023-02-19T10:33:02.129Z,0.60
2023-02-19T10:38:06.759Z,0.50
2023-02-19T10:43:31.148Z,0.30
2023-02-19T10:48:37.467Z,0.35
2023-02-19T10:54:04.044Z,0.50
2023-02-19T10:59:20.744Z,0.60
2023-02-19T11:04:22.276Z,0.57
2023-02-19T11:09:42.881Z,0.90
2023-02-19T11:14:45.419Z,0.82
2023-02-19T11:19:48.740Z,0.70
2023-02-19T11:24:55.413Z,0.40
2023-02-19T11:30:30.238Z,0.40
2023-02-19T11:35:31.750Z,0.30
2023-02-19T11:40:55.819Z,0.50
2023-02-19T11:46:23.442Z,0.30
2023-02-19T11:51:38.604Z,0.50
2023-02-19T11:56:41.663Z,0.88
2023-02-19T12:02:01.452Z,0.30
2023-02-19T12:07:37.725Z,0.30
2023-02-19T12:12:41.943Z,1.30
2023-02-19T12:17:57.876Z,0.60
2023-02-19T12:23:32.042Z,0.90
2023-02-19T12:29:24.615Z,0.52
2023-02-19T12:34:34.869Z,0.60
2023-02-19T12:39:52.203Z,0.60
2023-02-19T12:45:02.840Z,0.70
2023-02-19T12:50:13.403Z,0.47
2023-02-19T12:55:17.843Z,0.40
2023-02-19T13:00:35.499Z,0.50
2023-02-19T13:05:55.874Z,0.45
2023-02-19T13:11:10.780Z,0.47
2023-02-19T13:16:18.871Z,1.48
2023-02-19T13:21:42.418Z,1.20
2023-02-19T13:27:14.751Z,0.50
2023-02-19T13:32:28.262Z,1.45
2023-02-19T13:37:34.860Z,0.57
2023-02-19T13:42:36.720Z,0.47
2023-02-19T13:47:57.391Z,0.52
2023-02-19T13:53:00.428Z,0.60
2023-02-19T13:58:32.882Z,0.82
2023-02-19T14:03:37.316Z,1.23
2023-02-19T14:08:52.608Z,0.50
2023-02-19T14:13:55.317Z,0.77
2023-02-19T14:18:57.132Z,1.77
2023-02-19T14:24:00.135Z,1.50
2023-02-19T14:29:02.578Z,0.50
2023-02-19T14:34:06.603Z,0.68
2023-02-19T14:39:23.429Z,1.00
2023-02-19T14:44:31.423Z,1.17
2023-02-19T14:49:52.747Z,1.08
2023-02-19T14:55:01.562Z,0.57
2023-02-19T15:00:20.148Z,1.15
2023-02-19T15:05:25.897Z,0.80
2023-02-19T15:10:29.661Z,0.70
2023-02-19T15:15:36.459Z,2.15
2023-02-19T15:20:38.204Z,0.67
2023-02-19T15:25:39.854Z,1.27
2023-02-19T15:30:41.334Z,1.25
2023-02-19T15:35:51.836Z,1.10
2023-02-19T15:40:55.960Z,0.88
2023-02-19T15:46:02.560Z,1.40
2023-02-19T15:51:13.223Z,1.40
2023-02-19T15:56:29.619Z,1.52
2023-02-19T16:01:37.498Z,1.23
2023-02-19T16:06:58.596Z,1.30
2023-02-19T16:12:01.514Z,1.70
2023-02-19T16:17:14.095Z,1.00
2023-02-19T16:22:21.862Z,1.08
2023-02-19T16:32:30.671Z,1.00
2023-02-19T16:37:57.373Z,1.38
2023-02-19T16:43:24.442Z,1.10
2023-02-19T16:48:26.003Z,1.35
2023-02-19T16:53:28.926Z,1.83
2023-02-19T16:58:30.453Z,1.85
2023-02-19T17:03:31.961Z,1.95
2023-02-19T17:08:37.111Z,1.48
2023-02-19T17:13:38.909Z,1.20
2023-02-19T17:18:40.479Z,1.00
2023-02-19T17:23:42.128Z,0.93
2023-02-19T17:28:43.860Z,0.80
2023-02-19T17:33:45.578Z,1.05
2023-02-19T17:38:47.324Z,1.20
2023-02-19T17:43:50.457Z,1.25
2023-02-19T17:48:53.147Z,2.10
2023-02-19T17:53:54.639Z,1.92
2023-02-19T17:58:57.543Z,1.55
2023-02-19T18:03:59.236Z,1.27
2023-02-19T18:09:00.752Z,1.60
2023-02-19T18:14:02.326Z,1.20
2023-02-19T18:19:03.990Z,1.48
2023-02-19T18:24:06.093Z,1.23
2023-02-19T18:29:07.636Z,1.40
2023-02-19T18:34:16.704Z,2.28
2023-02-19T18:39:18.341Z,1.77
2023-02-19T18:44:22.073Z,2.30
2023-02-19T18:49:24.666Z,3.20
2023-02-19T18:54:26.470Z,4.75
2023-02-19T18:59:28.027Z,5.90
2023-02-19T19:04:29.587Z,3.95
2023-02-19T19:09:31.143Z,1.85
2023-02-19T19:14:32.724Z,1.85
2023-02-19T19:19:34.242Z,1.73
2023-02-19T19:24:35.987Z,2.53
2023-02-19T19:29:37.525Z,2.17
2023-02-19T19:34:39.060Z,2.67
2023-02-19T19:39:43.248Z,2.35
2023-02-19T19:44:45.428Z,2.00
2023-02-19T19:49:47.330Z,2.45
2023-02-19T19:54:53.794Z,1.80
2023-02-19T19:59:55.384Z,1.50
2023-02-19T20:05:01.682Z,1.50
2023-02-19T20:10:03.627Z,1.52
2023-02-19T20:15:05.331Z,1.73
2023-02-19T20:20:07.440Z,1.70
2023-02-19T20:25:11.188Z,1.60
2023-02-19T20:30:14.217Z,1.60
2023-02-19T20:35:17.401Z,2.00
2023-02-19T20:40:19.131Z,1.90
2023-02-19T20:45:21.334Z,2.00
2023-02-19T20:50:23.821Z,1.90
2023-02-19T20:55:25.987Z,1.90
2023-02-19T21:00:27.870Z,1.77
2023-02-19T21:05:29.379Z,2.13
2023-02-19T21:10:31.209Z,2.20
2023-02-19T21:15:32.744Z,2.08
2023-02-19T21:20:34.849Z,2.40
2023-02-19T21:25:36.381Z,2.50
2023-02-19T21:30:37.978Z,2.50
2023-02-19T21:35:39.545Z,2.97
2023-02-19T21:40:41.004Z,3.15
2023-02-19T21:45:43.058Z,3.70
2023-02-19T21:50:45.712Z,4.28
2023-02-19T21:55:57.867Z,4.90
2023-02-19T22:01:00.196Z,4.95
2023-02-19T22:06:02.239Z,5.80
2023-02-19T22:11:04.002Z,5.93
2023-02-19T22:16:05.796Z,6.32
2023-02-19T22:21:07.379Z,7.55
2023-02-19T22:26:08.851Z,9.05
2023-02-19T22:31:10.401Z,10.70
2023-02-19T22:36:23.646Z,10.98
2023-02-19T22:41:26.097Z,12.63
2023-02-19T22:46:30.270Z,13.27
2023-02-19T22:51:33.730Z,14.18
2023-02-19T22:56:35.320Z,14.23
2023-02-19T23:01:36.798Z,13.30
2023-02-19T23:06:41.446Z,14.02
2023-02-19T23:11:43.040Z,14.90
2023-02-19T23:16:44.789Z,14.13
2023-02-19T23:21:46.614Z,14.30
2023-02-19T23:26:50.845Z,14.05
2023-02-19T23:31:53.727Z,13.45
2023-02-19T23:36:55.545Z,12.60
2023-02-19T23:41:57.700Z,13.25
2023-02-19T23:46:59.484Z,10.73
2023-02-19T23:52:00.946Z,11.95
2023-02-19T23:57:02.481Z,9.82
